This is the latest recevied weather packets stored in our database for station/object OK3MS-5. If no packets are shown the sender has not sent any weather packets the latest 10 day(s).
| Time | Temp. | Humidity | Pressure | Rain* | Wind** | Luminosity | Snow |
|---|---|---|---|---|---|---|---|
| 1787664904 | 23.33° C | 49% | 1010.4 hPa | 0 mm | - | 376 W/m² | - |
| 1787664604 | 23.33° C | 49% | 1010.2 hPa | 0 mm | - | 287 W/m² | - |
| 1787664303 | 23.33° C | 48% | 1010.2 hPa | 0 mm | - | 258 W/m² | - |
| 1787664003 | 23.33° C | 49% | 1010.3 hPa | 0 mm | - | 240 W/m² | - |
| 1787663704 | 23.33° C | 49% | 1010.2 hPa | 0 mm | - | 218 W/m² | - |
| 1787663404 | 23.33° C | 49% | 1010 hPa | 0 mm | - | 207 W/m² | - |
| 1787663106 | 23.89° C | 47% | 1009.9 hPa | 0 mm | - | 196 W/m² | - |
| 1787662805 | 23.89° C | 47% | 1009.9 hPa | 0 mm | - | 207 W/m² | - |
| 1787662504 | 23.89° C | 48% | 1009.9 hPa | 0 mm | - | 229 W/m² | - |
| 1787662203 | 24.44° C | 47% | 1009.7 hPa | 0 mm | - | 290 W/m² | - |
| 1787661903 | 24.44° C | 47% | 1009.7 hPa | 0 mm | - | 313 W/m² | - |
| 1787661605 | 24.44° C | 48% | 1009.6 hPa | 0 mm | - | 381 W/m² | - |
| 1787661305 | 24.44° C | 47% | 1009.6 hPa | 0 mm | - | 420 W/m² | - |
| 1787661005 | 24.44° C | 45% | 1009.5 hPa | 0 mm | - | 530 W/m² | - |
| 1787660703 | 24.44° C | 48% | 1009.5 hPa | 0 mm | - | 417 W/m² | - |
| 1787660402 | 24.44° C | 46% | 1009.5 hPa | 0 mm | - | 352 W/m² | - |
| 1787660108 | 23.89° C | 47% | 1009.7 hPa | 0 mm | - | 378 W/m² | - |
| 1787659804 | 23.89° C | 49% | 1009.8 hPa | 0 mm | - | 423 W/m² | - |
| 1787659506 | 23.33° C | 49% | 1009.8 hPa | 0 mm | - | 562 W/m² | - |
| 1787659204 | 23.33° C | 50% | 1009.8 hPa | 0 mm | - | 357 W/m² | - |
| 1787658908 | 23.33° C | 49% | 1009.8 hPa | 0 mm | - | 358 W/m² | - |
| 1787658603 | 23.33° C | 49% | 1009.7 hPa | 0 mm | - | 308 W/m² | - |
| 1787658303 | 23.33° C | 51% | 1009.8 hPa | 0 mm | - | 297 W/m² | - |
| 1787658003 | 23.33° C | 50% | 1009.8 hPa | 0 mm | - | 306 W/m² | - |
| 1787657705 | 22.78° C | 50% | 1009.9 hPa | 0 mm | - | 355 W/m² | - |
* Rain latest hour (hover to see other rain measurements)
** Current wind speed in m/s (hover to see current wind gust speed)